sensor_id;sensor_type;location;lat;lon;timestamp;P1;durP1;ratioP1;P2;durP2;ratioP2
78783;SDS011;68127;51.050;14.084;2023-11-19T00:02:20;13.00;;;7.10;;
78783;SDS011;68127;51.050;14.084;2023-11-19T00:04:46;13.93;;;7.90;;
78783;SDS011;68127;51.050;14.084;2023-11-19T00:07:12;15.85;;;8.20;;
78783;SDS011;68127;51.050;14.084;2023-11-19T00:09:39;15.13;;;8.30;;
78783;SDS011;68127;51.050;14.084;2023-11-19T00:12:04;13.30;;;7.97;;
78783;SDS011;68127;51.050;14.084;2023-11-19T00:14:30;14.75;;;8.40;;
78783;SDS011;68127;51.050;14.084;2023-11-19T00:16:56;13.63;;;8.07;;
78783;SDS011;68127;51.050;14.084;2023-11-19T00:19:21;15.32;;;7.82;;
78783;SDS011;68127;51.050;14.084;2023-11-19T00:21:46;13.57;;;7.40;;
78783;SDS011;68127;51.050;14.084;2023-11-19T00:24:12;13.00;;;7.80;;
78783;SDS011;68127;51.050;14.084;2023-11-19T00:26:37;13.90;;;7.75;;
78783;SDS011;68127;51.050;14.084;2023-11-19T00:29:03;12.98;;;7.43;;
78783;SDS011;68127;51.050;14.084;2023-11-19T00:31:29;14.43;;;8.00;;
78783;SDS011;68127;51.050;14.084;2023-11-19T00:33:55;13.40;;;8.25;;
78783;SDS011;68127;51.050;14.084;2023-11-19T00:36:20;13.07;;;7.80;;
78783;SDS011;68127;51.050;14.084;2023-11-19T00:38:45;12.77;;;8.02;;
78783;SDS011;68127;51.050;14.084;2023-11-19T00:41:11;14.52;;;7.70;;
78783;SDS011;68127;51.050;14.084;2023-11-19T00:43:36;13.65;;;8.13;;
78783;SDS011;68127;51.050;14.084;2023-11-19T00:46:01;13.00;;;7.75;;
78783;SDS011;68127;51.050;14.084;2023-11-19T00:48:28;12.52;;;7.75;;
78783;SDS011;68127;51.050;14.084;2023-11-19T00:50:53;13.65;;;7.60;;
78783;SDS011;68127;51.050;14.084;2023-11-19T00:53:18;11.27;;;6.75;;
78783;SDS011;68127;51.050;14.084;2023-11-19T00:55:44;12.10;;;6.95;;
78783;SDS011;68127;51.050;14.084;2023-11-19T00:58:09;12.13;;;7.28;;
78783;SDS011;68127;51.050;14.084;2023-11-19T01:00:34;10.57;;;6.80;;
78783;SDS011;68127;51.050;14.084;2023-11-19T01:03:00;12.80;;;7.07;;
78783;SDS011;68127;51.050;14.084;2023-11-19T01:05:25;11.25;;;7.15;;
78783;SDS011;68127;51.050;14.084;2023-11-19T01:07:51;13.55;;;7.25;;
78783;SDS011;68127;51.050;14.084;2023-11-19T01:10:18;11.88;;;7.10;;
78783;SDS011;68127;51.050;14.084;2023-11-19T01:12:43;9.95;;;6.32;;
78783;SDS011;68127;51.050;14.084;2023-11-19T01:15:09;10.45;;;6.43;;
78783;SDS011;68127;51.050;14.084;2023-11-19T01:17:34;11.32;;;6.43;;
78783;SDS011;68127;51.050;14.084;2023-11-19T01:20:02;11.00;;;6.50;;
78783;SDS011;68127;51.050;14.084;2023-11-19T01:22:28;11.82;;;7.05;;
78783;SDS011;68127;51.050;14.084;2023-11-19T01:24:53;10.70;;;6.78;;
78783;SDS011;68127;51.050;14.084;2023-11-19T01:27:19;10.27;;;6.35;;
78783;SDS011;68127;51.050;14.084;2023-11-19T01:29:44;10.48;;;6.13;;
78783;SDS011;68127;51.050;14.084;2023-11-19T01:32:10;10.60;;;6.45;;
78783;SDS011;68127;51.050;14.084;2023-11-19T01:34:35;11.30;;;6.72;;
78783;SDS011;68127;51.050;14.084;2023-11-19T01:37:01;11.10;;;6.50;;
78783;SDS011;68127;51.050;14.084;2023-11-19T01:39:26;9.70;;;6.18;;
78783;SDS011;68127;51.050;14.084;2023-11-19T01:41:52;10.38;;;6.03;;
78783;SDS011;68127;51.050;14.084;2023-11-19T01:44:17;9.95;;;5.85;;
78783;SDS011;68127;51.050;14.084;2023-11-19T01:46:43;11.85;;;5.90;;
78783;SDS011;68127;51.050;14.084;2023-11-19T01:49:10;9.98;;;6.05;;
78783;SDS011;68127;51.050;14.084;2023-11-19T01:51:36;9.90;;;5.97;;
78783;SDS011;68127;51.050;14.084;2023-11-19T01:54:03;10.30;;;6.25;;
78783;SDS011;68127;51.050;14.084;2023-11-19T01:56:28;9.15;;;5.80;;
78783;SDS011;68127;51.050;14.084;2023-11-19T01:58:55;8.10;;;5.50;;
78783;SDS011;68127;51.050;14.084;2023-11-19T02:01:21;10.90;;;5.38;;
78783;SDS011;68127;51.050;14.084;2023-11-19T02:03:47;10.13;;;5.90;;
78783;SDS011;68127;51.050;14.084;2023-11-19T02:06:12;10.05;;;6.43;;
78783;SDS011;68127;51.050;14.084;2023-11-19T02:08:38;8.60;;;5.80;;
78783;SDS011;68127;51.050;14.084;2023-11-19T02:11:04;11.30;;;6.03;;
78783;SDS011;68127;51.050;14.084;2023-11-19T02:13:31;8.60;;;5.18;;
78783;SDS011;68127;51.050;14.084;2023-11-19T02:15:57;9.40;;;5.53;;
78783;SDS011;68127;51.050;14.084;2023-11-19T02:18:26;8.38;;;5.13;;
78783;SDS011;68127;51.050;14.084;2023-11-19T02:20:55;8.60;;;5.78;;
78783;SDS011;68127;51.050;14.084;2023-11-19T02:23:25;10.52;;;5.78;;
78783;SDS011;68127;51.050;14.084;2023-11-19T02:26:00;9.20;;;5.57;;
78783;SDS011;68127;51.050;14.084;2023-11-19T02:28:28;9.43;;;5.47;;
78783;SDS011;68127;51.050;14.084;2023-11-19T02:30:53;9.18;;;5.85;;
78783;SDS011;68127;51.050;14.084;2023-11-19T02:33:18;8.10;;;5.22;;
78783;SDS011;68127;51.050;14.084;2023-11-19T02:35:44;9.50;;;5.30;;
78783;SDS011;68127;51.050;14.084;2023-11-19T02:38:09;9.65;;;5.50;;
78783;SDS011;68127;51.050;14.084;2023-11-19T02:40:34;8.10;;;4.75;;
78783;SDS011;68127;51.050;14.084;2023-11-19T02:43:00;7.80;;;5.05;;
78783;SDS011;68127;51.050;14.084;2023-11-19T02:45:25;9.70;;;5.30;;
78783;SDS011;68127;51.050;14.084;2023-11-19T02:47:51;8.90;;;5.20;;
78783;SDS011;68127;51.050;14.084;2023-11-19T02:50:17;7.85;;;4.70;;
78783;SDS011;68127;51.050;14.084;2023-11-19T02:52:49;8.40;;;5.32;;
78783;SDS011;68127;51.050;14.084;2023-11-19T02:55:15;9.23;;;5.07;;
78783;SDS011;68127;51.050;14.084;2023-11-19T02:57:42;7.72;;;4.80;;
78783;SDS011;68127;51.050;14.084;2023-11-19T03:00:18;8.27;;;4.70;;
78783;SDS011;68127;51.050;14.084;2023-11-19T03:02:48;7.13;;;3.92;;
78783;SDS011;68127;51.050;14.084;2023-11-19T03:05:23;5.82;;;3.70;;
78783;SDS011;68127;51.050;14.084;2023-11-19T03:07:48;7.78;;;4.32;;
78783;SDS011;68127;51.050;14.084;2023-11-19T03:10:13;6.78;;;4.35;;
78783;SDS011;68127;51.050;14.084;2023-11-19T03:12:39;6.15;;;3.83;;
78783;SDS011;68127;51.050;14.084;2023-11-19T03:15:05;7.82;;;3.63;;
78783;SDS011;68127;51.050;14.084;2023-11-19T03:17:32;5.95;;;3.30;;
78783;SDS011;68127;51.050;14.084;2023-11-19T03:19:57;6.53;;;3.80;;
78783;SDS011;68127;51.050;14.084;2023-11-19T03:22:22;6.25;;;3.83;;
78783;SDS011;68127;51.050;14.084;2023-11-19T03:24:50;5.57;;;3.50;;
78783;SDS011;68127;51.050;14.084;2023-11-19T03:27:15;5.70;;;3.33;;
78783;SDS011;68127;51.050;14.084;2023-11-19T03:29:41;5.57;;;3.03;;
78783;SDS011;68127;51.050;14.084;2023-11-19T03:32:06;5.72;;;3.20;;
78783;SDS011;68127;51.050;14.084;2023-11-19T03:34:31;6.13;;;3.28;;
78783;SDS011;68127;51.050;14.084;2023-11-19T03:36:57;6.30;;;3.45;;
78783;SDS011;68127;51.050;14.084;2023-11-19T03:39:22;6.50;;;3.40;;
78783;SDS011;68127;51.050;14.084;2023-11-19T03:41:50;5.90;;;3.25;;
78783;SDS011;68127;51.050;14.084;2023-11-19T03:44:15;5.45;;;3.28;;
78783;SDS011;68127;51.050;14.084;2023-11-19T03:46:40;6.07;;;3.45;;
78783;SDS011;68127;51.050;14.084;2023-11-19T03:49:05;5.43;;;3.10;;
78783;SDS011;68127;51.050;14.084;2023-11-19T03:51:32;6.00;;;3.53;;
78783;SDS011;68127;51.050;14.084;2023-11-19T03:53:57;5.18;;;3.15;;
78783;SDS011;68127;51.050;14.084;2023-11-19T03:56:22;5.45;;;2.92;;
78783;SDS011;68127;51.050;14.084;2023-11-19T03:58:47;6.40;;;3.30;;
78783;SDS011;68127;51.050;14.084;2023-11-19T04:01:13;4.47;;;2.80;;
78783;SDS011;68127;51.050;14.084;2023-11-19T04:03:38;5.43;;;3.03;;
78783;SDS011;68127;51.050;14.084;2023-11-19T04:06:04;5.30;;;2.88;;
78783;SDS011;68127;51.050;14.084;2023-11-19T04:08:29;6.60;;;2.97;;
78783;SDS011;68127;51.050;14.084;2023-11-19T04:10:55;5.45;;;3.42;;
78783;SDS011;68127;51.050;14.084;2023-11-19T04:13:20;5.78;;;2.90;;
78783;SDS011;68127;51.050;14.084;2023-11-19T04:15:45;7.00;;;3.22;;
78783;SDS011;68127;51.050;14.084;2023-11-19T04:18:10;5.15;;;2.85;;
78783;SDS011;68127;51.050;14.084;2023-11-19T04:20:36;4.80;;;3.08;;
78783;SDS011;68127;51.050;14.084;2023-11-19T04:23:01;5.43;;;3.35;;
78783;SDS011;68127;51.050;14.084;2023-11-19T04:25:27;5.40;;;3.08;;
78783;SDS011;68127;51.050;14.084;2023-11-19T04:27:52;5.57;;;3.10;;
78783;SDS011;68127;51.050;14.084;2023-11-19T04:30:18;4.90;;;2.90;;
78783;SDS011;68127;51.050;14.084;2023-11-19T04:32:43;6.72;;;3.50;;
78783;SDS011;68127;51.050;14.084;2023-11-19T04:35:09;5.38;;;3.03;;
78783;SDS011;68127;51.050;14.084;2023-11-19T04:37:34;5.30;;;3.42;;
78783;SDS011;68127;51.050;14.084;2023-11-19T04:39:59;5.93;;;3.33;;
78783;SDS011;68127;51.050;14.084;2023-11-19T04:42:25;6.00;;;3.55;;
78783;SDS011;68127;51.050;14.084;2023-11-19T04:44:50;5.68;;;3.65;;
78783;SDS011;68127;51.050;14.084;2023-11-19T04:47:15;5.70;;;3.50;;
78783;SDS011;68127;51.050;14.084;2023-11-19T04:49:41;6.22;;;3.70;;
78783;SDS011;68127;51.050;14.084;2023-11-19T04:52:08;6.32;;;3.80;;
78783;SDS011;68127;51.050;14.084;2023-11-19T04:54:33;7.05;;;3.83;;
78783;SDS011;68127;51.050;14.084;2023-11-19T04:56:58;6.55;;;3.97;;
78783;SDS011;68127;51.050;14.084;2023-11-19T04:59:24;8.27;;;4.13;;
78783;SDS011;68127;51.050;14.084;2023-11-19T05:01:49;7.45;;;4.45;;
78783;SDS011;68127;51.050;14.084;2023-11-19T05:04:15;6.32;;;4.07;;
78783;SDS011;68127;51.050;14.084;2023-11-19T05:06:40;6.68;;;4.25;;
78783;SDS011;68127;51.050;14.084;2023-11-19T05:09:06;7.50;;;4.60;;
78783;SDS011;68127;51.050;14.084;2023-11-19T05:11:34;7.15;;;4.50;;
78783;SDS011;68127;51.050;14.084;2023-11-19T05:13:59;9.48;;;4.68;;
78783;SDS011;68127;51.050;14.084;2023-11-19T05:16:25;9.15;;;5.00;;
78783;SDS011;68127;51.050;14.084;2023-11-19T05:18:50;6.65;;;4.60;;
78783;SDS011;68127;51.050;14.084;2023-11-19T05:21:15;7.38;;;4.70;;
78783;SDS011;68127;51.050;14.084;2023-11-19T05:23:42;7.65;;;4.80;;
78783;SDS011;68127;51.050;14.084;2023-11-19T05:26:07;7.47;;;4.88;;
78783;SDS011;68127;51.050;14.084;2023-11-19T05:28:33;7.65;;;4.68;;
78783;SDS011;68127;51.050;14.084;2023-11-19T05:30:59;9.25;;;5.28;;
78783;SDS011;68127;51.050;14.084;2023-11-19T05:33:24;9.32;;;5.18;;
78783;SDS011;68127;51.050;14.084;2023-11-19T05:35:50;8.05;;;4.70;;
78783;SDS011;68127;51.050;14.084;2023-11-19T05:38:15;7.50;;;4.90;;
78783;SDS011;68127;51.050;14.084;2023-11-19T05:40:41;7.78;;;4.53;;
78783;SDS011;68127;51.050;14.084;2023-11-19T05:43:07;8.07;;;5.03;;
78783;SDS011;68127;51.050;14.084;2023-11-19T05:45:32;7.07;;;4.65;;
78783;SDS011;68127;51.050;14.084;2023-11-19T05:47:58;7.45;;;4.68;;
78783;SDS011;68127;51.050;14.084;2023-11-19T05:50:23;8.88;;;5.00;;
78783;SDS011;68127;51.050;14.084;2023-11-19T05:52:49;6.93;;;4.35;;
78783;SDS011;68127;51.050;14.084;2023-11-19T05:55:14;6.38;;;4.28;;
78783;SDS011;68127;51.050;14.084;2023-11-19T05:57:39;7.63;;;4.70;;
78783;SDS011;68127;51.050;14.084;2023-11-19T06:00:05;7.95;;;4.60;;
78783;SDS011;68127;51.050;14.084;2023-11-19T06:02:34;6.90;;;4.57;;
78783;SDS011;68127;51.050;14.084;2023-11-19T06:05:00;10.27;;;4.32;;
78783;SDS011;68127;51.050;14.084;2023-11-19T06:07:26;6.72;;;4.20;;
78783;SDS011;68127;51.050;14.084;2023-11-19T06:09:52;6.43;;;4.35;;
78783;SDS011;68127;51.050;14.084;2023-11-19T06:12:17;7.60;;;4.60;;
78783;SDS011;68127;51.050;14.084;2023-11-19T06:14:42;6.90;;;4.07;;
78783;SDS011;68127;51.050;14.084;2023-11-19T06:17:08;7.68;;;4.47;;
78783;SDS011;68127;51.050;14.084;2023-11-19T06:19:35;6.35;;;4.28;;
78783;SDS011;68127;51.050;14.084;2023-11-19T06:22:00;6.68;;;3.90;;
78783;SDS011;68127;51.050;14.084;2023-11-19T06:24:26;5.97;;;3.83;;
78783;SDS011;68127;51.050;14.084;2023-11-19T06:26:51;8.02;;;4.00;;
78783;SDS011;68127;51.050;14.084;2023-11-19T06:29:16;7.15;;;3.95;;
78783;SDS011;68127;51.050;14.084;2023-11-19T06:31:44;6.18;;;3.90;;
78783;SDS011;68127;51.050;14.084;2023-11-19T06:34:10;7.90;;;3.85;;
78783;SDS011;68127;51.050;14.084;2023-11-19T06:36:35;6.10;;;3.80;;
78783;SDS011;68127;51.050;14.084;2023-11-19T06:39:00;6.13;;;3.70;;
78783;SDS011;68127;51.050;14.084;2023-11-19T06:41:26;7.18;;;4.00;;
78783;SDS011;68127;51.050;14.084;2023-11-19T06:43:52;7.00;;;3.90;;
78783;SDS011;68127;51.050;14.084;2023-11-19T06:46:17;6.03;;;3.53;;
78783;SDS011;68127;51.050;14.084;2023-11-19T06:48:43;6.35;;;3.40;;
78783;SDS011;68127;51.050;14.084;2023-11-19T06:51:09;6.65;;;3.47;;
78783;SDS011;68127;51.050;14.084;2023-11-19T06:53:35;6.07;;;3.78;;
78783;SDS011;68127;51.050;14.084;2023-11-19T06:56:01;6.65;;;3.70;;
78783;SDS011;68127;51.050;14.084;2023-11-19T06:58:27;6.05;;;3.50;;
78783;SDS011;68127;51.050;14.084;2023-11-19T07:00:53;6.30;;;3.67;;
78783;SDS011;68127;51.050;14.084;2023-11-19T07:03:18;5.78;;;3.53;;
78783;SDS011;68127;51.050;14.084;2023-11-19T07:05:45;5.03;;;3.17;;
78783;SDS011;68127;51.050;14.084;2023-11-19T07:08:10;6.15;;;3.42;;
78783;SDS011;68127;51.050;14.084;2023-11-19T07:10:36;5.50;;;3.28;;
78783;SDS011;68127;51.050;14.084;2023-11-19T07:13:01;5.88;;;3.55;;
78783;SDS011;68127;51.050;14.084;2023-11-19T07:15:30;5.78;;;3.47;;
78783;SDS011;68127;51.050;14.084;2023-11-19T07:17:56;5.45;;;3.42;;
78783;SDS011;68127;51.050;14.084;2023-11-19T07:20:23;5.45;;;3.38;;
78783;SDS011;68127;51.050;14.084;2023-11-19T07:22:48;5.68;;;3.33;;
78783;SDS011;68127;51.050;14.084;2023-11-19T07:25:13;5.03;;;3.00;;
78783;SDS011;68127;51.050;14.084;2023-11-19T07:27:39;6.20;;;3.40;;
78783;SDS011;68127;51.050;14.084;2023-11-19T07:30:05;5.72;;;3.28;;
78783;SDS011;68127;51.050;14.084;2023-11-19T07:32:32;5.60;;;3.00;;
78783;SDS011;68127;51.050;14.084;2023-11-19T07:34:57;5.75;;;3.13;;
78783;SDS011;68127;51.050;14.084;2023-11-19T07:37:23;4.97;;;3.00;;
78783;SDS011;68127;51.050;14.084;2023-11-19T07:39:48;5.22;;;3.33;;
78783;SDS011;68127;51.050;14.084;2023-11-19T07:42:14;6.53;;;3.60;;
78783;SDS011;68127;51.050;14.084;2023-11-19T07:44:39;8.70;;;4.10;;
78783;SDS011;68127;51.050;14.084;2023-11-19T07:47:04;5.82;;;3.60;;
78783;SDS011;68127;51.050;14.084;2023-11-19T07:49:30;5.57;;;3.00;;
78783;SDS011;68127;51.050;14.084;2023-11-19T07:51:55;7.03;;;3.60;;
78783;SDS011;68127;51.050;14.084;2023-11-19T07:54:21;5.97;;;3.72;;
78783;SDS011;68127;51.050;14.084;2023-11-19T07:56:46;5.35;;;3.20;;
78783;SDS011;68127;51.050;14.084;2023-11-19T07:59:11;5.15;;;2.85;;
78783;SDS011;68127;51.050;14.084;2023-11-19T08:01:37;5.38;;;3.30;;
78783;SDS011;68127;51.050;14.084;2023-11-19T08:04:02;5.18;;;3.15;;
78783;SDS011;68127;51.050;14.084;2023-11-19T08:06:27;5.13;;;3.05;;
78783;SDS011;68127;51.050;14.084;2023-11-19T08:08:53;5.03;;;3.00;;
78783;SDS011;68127;51.050;14.084;2023-11-19T08:11:18;5.82;;;3.00;;
78783;SDS011;68127;51.050;14.084;2023-11-19T08:13:44;4.85;;;3.08;;
78783;SDS011;68127;51.050;14.084;2023-11-19T08:16:10;5.15;;;2.78;;
78783;SDS011;68127;51.050;14.084;2023-11-19T08:18:35;5.07;;;3.00;;
78783;SDS011;68127;51.050;14.084;2023-11-19T08:21:01;6.47;;;3.13;;
78783;SDS011;68127;51.050;14.084;2023-11-19T08:23:26;5.93;;;3.35;;
78783;SDS011;68127;51.050;14.084;2023-11-19T08:25:53;5.20;;;2.90;;
78783;SDS011;68127;51.050;14.084;2023-11-19T08:28:19;5.95;;;2.90;;
78783;SDS011;68127;51.050;14.084;2023-11-19T08:30:44;4.60;;;2.90;;
78783;SDS011;68127;51.050;14.084;2023-11-19T08:33:09;16.65;;;8.32;;
78783;SDS011;68127;51.050;14.084;2023-11-19T08:35:35;5.68;;;3.22;;
78783;SDS011;68127;51.050;14.084;2023-11-19T08:38:00;4.85;;;3.03;;
78783;SDS011;68127;51.050;14.084;2023-11-19T08:40:26;5.47;;;2.88;;
78783;SDS011;68127;51.050;14.084;2023-11-19T08:42:51;8.38;;;3.72;;
78783;SDS011;68127;51.050;14.084;2023-11-19T08:45:17;5.53;;;2.70;;
78783;SDS011;68127;51.050;14.084;2023-11-19T08:47:42;4.75;;;2.60;;
78783;SDS011;68127;51.050;14.084;2023-11-19T08:50:07;4.00;;;2.40;;
78783;SDS011;68127;51.050;14.084;2023-11-19T08:52:33;4.55;;;2.50;;
78783;SDS011;68127;51.050;14.084;2023-11-19T08:54:59;5.00;;;2.47;;
78783;SDS011;68127;51.050;14.084;2023-11-19T08:57:24;4.03;;;2.45;;
78783;SDS011;68127;51.050;14.084;2023-11-19T08:59:50;4.13;;;2.50;;
78783;SDS011;68127;51.050;14.084;2023-11-19T09:02:15;4.18;;;2.50;;
78783;SDS011;68127;51.050;14.084;2023-11-19T09:04:41;4.50;;;2.63;;
78783;SDS011;68127;51.050;14.084;2023-11-19T09:07:06;4.95;;;2.70;;
78783;SDS011;68127;51.050;14.084;2023-11-19T09:09:34;4.30;;;2.60;;
78783;SDS011;68127;51.050;14.084;2023-11-19T09:12:00;4.03;;;2.53;;
78783;SDS011;68127;51.050;14.084;2023-11-19T09:14:26;5.07;;;2.83;;
78783;SDS011;68127;51.050;14.084;2023-11-19T09:16:51;5.15;;;2.60;;
78783;SDS011;68127;51.050;14.084;2023-11-19T09:19:17;6.75;;;2.65;;
78783;SDS011;68127;51.050;14.084;2023-11-19T09:21:43;4.50;;;2.90;;
78783;SDS011;68127;51.050;14.084;2023-11-19T09:24:08;5.38;;;2.78;;
78783;SDS011;68127;51.050;14.084;2023-11-19T09:26:33;5.05;;;3.28;;
78783;SDS011;68127;51.050;14.084;2023-11-19T09:28:59;6.03;;;2.97;;
78783;SDS011;68127;51.050;14.084;2023-11-19T09:31:27;5.55;;;2.92;;
78783;SDS011;68127;51.050;14.084;2023-11-19T09:33:53;7.18;;;3.10;;
78783;SDS011;68127;51.050;14.084;2023-11-19T09:36:18;5.60;;;2.80;;
78783;SDS011;68127;51.050;14.084;2023-11-19T09:38:44;6.13;;;3.00;;
78783;SDS011;68127;51.050;14.084;2023-11-19T09:41:09;4.50;;;2.80;;
78783;SDS011;68127;51.050;14.084;2023-11-19T09:43:37;5.07;;;2.95;;
78783;SDS011;68127;51.050;14.084;2023-11-19T09:46:04;7.65;;;3.28;;
78783;SDS011;68127;51.050;14.084;2023-11-19T09:48:32;10.10;;;3.28;;
78783;SDS011;68127;51.050;14.084;2023-11-19T09:50:58;7.10;;;3.85;;
78783;SDS011;68127;51.050;14.084;2023-11-19T09:53:24;7.63;;;3.50;;
78783;SDS011;68127;51.050;14.084;2023-11-19T09:55:49;8.20;;;4.28;;
78783;SDS011;68127;51.050;14.084;2023-11-19T09:58:15;6.65;;;3.40;;
78783;SDS011;68127;51.050;14.084;2023-11-19T10:00:40;6.80;;;3.00;;
78783;SDS011;68127;51.050;14.084;2023-11-19T10:03:06;7.00;;;3.30;;
78783;SDS011;68127;51.050;14.084;2023-11-19T10:05:32;7.78;;;3.70;;
78783;SDS011;68127;51.050;14.084;2023-11-19T10:07:58;7.32;;;3.47;;
78783;SDS011;68127;51.050;14.084;2023-11-19T10:10:23;6.82;;;3.60;;
78783;SDS011;68127;51.050;14.084;2023-11-19T10:12:50;8.65;;;3.30;;
78783;SDS011;68127;51.050;14.084;2023-11-19T10:15:25;4.80;;;2.70;;
78783;SDS011;68127;51.050;14.084;2023-11-19T10:17:51;5.68;;;2.53;;
78783;SDS011;68127;51.050;14.084;2023-11-19T10:20:17;7.72;;;2.92;;
78783;SDS011;68127;51.050;14.084;2023-11-19T10:22:43;5.13;;;2.80;;
78783;SDS011;68127;51.050;14.084;2023-11-19T10:25:24;4.85;;;2.65;;
78783;SDS011;68127;51.050;14.084;2023-11-19T10:27:51;4.90;;;2.70;;
78783;SDS011;68127;51.050;14.084;2023-11-19T10:30:20;5.10;;;3.17;;
78783;SDS011;68127;51.050;14.084;2023-11-19T10:35:34;6.35;;;2.67;;
78783;SDS011;68127;51.050;14.084;2023-11-19T10:38:18;6.00;;;2.38;;
78783;SDS011;68127;51.050;14.084;2023-11-19T10:40:44;5.47;;;2.45;;
78783;SDS011;68127;51.050;14.084;2023-11-19T10:43:09;4.22;;;2.00;;
78783;SDS011;68127;51.050;14.084;2023-11-19T10:45:35;6.15;;;1.88;;
78783;SDS011;68127;51.050;14.084;2023-11-19T10:48:02;5.45;;;1.95;;
78783;SDS011;68127;51.050;14.084;2023-11-19T10:50:31;6.60;;;2.25;;
78783;SDS011;68127;51.050;14.084;2023-11-19T10:52:56;5.10;;;2.40;;
78783;SDS011;68127;51.050;14.084;2023-11-19T10:55:28;5.90;;;2.50;;
78783;SDS011;68127;51.050;14.084;2023-11-19T10:57:58;5.68;;;2.75;;
78783;SDS011;68127;51.050;14.084;2023-11-19T11:00:24;4.93;;;2.35;;
78783;SDS011;68127;51.050;14.084;2023-11-19T11:02:50;4.82;;;2.25;;
78783;SDS011;68127;51.050;14.084;2023-11-19T11:05:20;5.68;;;2.28;;
78783;SDS011;68127;51.050;14.084;2023-11-19T11:07:46;5.75;;;1.92;;
78783;SDS011;68127;51.050;14.084;2023-11-19T11:10:12;5.50;;;2.15;;
78783;SDS011;68127;51.050;14.084;2023-11-19T11:12:38;4.70;;;2.45;;
78783;SDS011;68127;51.050;14.084;2023-11-19T11:15:06;9.98;;;2.78;;
78783;SDS011;68127;51.050;14.084;2023-11-19T11:17:32;6.13;;;3.15;;
78783;SDS011;68127;51.050;14.084;2023-11-19T11:19:58;6.35;;;2.65;;
78783;SDS011;68127;51.050;14.084;2023-11-19T11:22:24;7.07;;;2.50;;
78783;SDS011;68127;51.050;14.084;2023-11-19T11:30:31;7.82;;;2.65;;
78783;SDS011;68127;51.050;14.084;2023-11-19T11:38:37;14.60;;;6.75;;
78783;SDS011;68127;51.050;14.084;2023-11-19T11:41:17;7.05;;;2.70;;
78783;SDS011;68127;51.050;14.084;2023-11-19T11:43:47;7.28;;;2.20;;
78783;SDS011;68127;51.050;14.084;2023-11-19T11:49:13;5.75;;;2.40;;
78783;SDS011;68127;51.050;14.084;2023-11-19T11:54:08;4.93;;;1.70;;
78783;SDS011;68127;51.050;14.084;2023-11-19T11:56:33;5.43;;;1.90;;
78783;SDS011;68127;51.050;14.084;2023-11-19T11:59:02;6.03;;;1.92;;
78783;SDS011;68127;51.050;14.084;2023-11-19T12:01:27;4.03;;;1.70;;
78783;SDS011;68127;51.050;14.084;2023-11-19T12:03:55;5.93;;;1.50;;
78783;SDS011;68127;51.050;14.084;2023-11-19T12:06:21;6.32;;;1.80;;
78783;SDS011;68127;51.050;14.084;2023-11-19T12:08:47;5.68;;;1.98;;
78783;SDS011;68127;51.050;14.084;2023-11-19T12:11:12;3.85;;;1.90;;
78783;SDS011;68127;51.050;14.084;2023-11-19T12:13:53;5.60;;;2.35;;
78783;SDS011;68127;51.050;14.084;2023-11-19T12:16:27;7.50;;;2.47;;
78783;SDS011;68127;51.050;14.084;2023-11-19T12:18:54;7.57;;;3.00;;
78783;SDS011;68127;51.050;14.084;2023-11-19T12:21:29;5.30;;;2.50;;
78783;SDS011;68127;51.050;14.084;2023-11-19T12:23:55;6.80;;;2.60;;
78783;SDS011;68127;51.050;14.084;2023-11-19T12:26:21;8.02;;;2.28;;
78783;SDS011;68127;51.050;14.084;2023-11-19T12:28:59;7.68;;;2.47;;
78783;SDS011;68127;51.050;14.084;2023-11-19T12:31:25;8.63;;;2.30;;
78783;SDS011;68127;51.050;14.084;2023-11-19T12:33:51;7.72;;;2.25;;
78783;SDS011;68127;51.050;14.084;2023-11-19T12:36:16;7.63;;;2.25;;
78783;SDS011;68127;51.050;14.084;2023-11-19T12:38:42;8.77;;;2.25;;
78783;SDS011;68127;51.050;14.084;2023-11-19T12:41:10;6.18;;;2.13;;
78783;SDS011;68127;51.050;14.084;2023-11-19T12:43:36;6.57;;;2.10;;
78783;SDS011;68127;51.050;14.084;2023-11-19T12:46:03;8.95;;;2.70;;
78783;SDS011;68127;51.050;14.084;2023-11-19T12:48:41;10.10;;;2.50;;
78783;SDS011;68127;51.050;14.084;2023-11-19T12:51:07;7.78;;;2.00;;
78783;SDS011;68127;51.050;14.084;2023-11-19T12:53:46;5.50;;;2.05;;
78783;SDS011;68127;51.050;14.084;2023-11-19T12:56:17;6.18;;;2.13;;
78783;SDS011;68127;51.050;14.084;2023-11-19T12:58:42;10.80;;;2.67;;
78783;SDS011;68127;51.050;14.084;2023-11-19T13:01:08;9.35;;;2.50;;
78783;SDS011;68127;51.050;14.084;2023-11-19T13:03:36;8.23;;;2.60;;
78783;SDS011;68127;51.050;14.084;2023-11-19T13:06:04;10.07;;;2.28;;
78783;SDS011;68127;51.050;14.084;2023-11-19T13:08:36;5.40;;;1.83;;
78783;SDS011;68127;51.050;14.084;2023-11-19T13:11:03;7.88;;;2.20;;
78783;SDS011;68127;51.050;14.084;2023-11-19T13:13:28;8.38;;;2.00;;
78783;SDS011;68127;51.050;14.084;2023-11-19T13:16:01;6.85;;;2.17;;
78783;SDS011;68127;51.050;14.084;2023-11-19T13:18:27;9.40;;;2.10;;
78783;SDS011;68127;51.050;14.084;2023-11-19T13:20:53;11.68;;;2.10;;
78783;SDS011;68127;51.050;14.084;2023-11-19T13:23:18;9.65;;;2.65;;
78783;SDS011;68127;51.050;14.084;2023-11-19T13:25:43;9.63;;;1.90;;
78783;SDS011;68127;51.050;14.084;2023-11-19T13:28:10;6.75;;;1.80;;
78783;SDS011;68127;51.050;14.084;2023-11-19T13:30:35;5.32;;;2.00;;
78783;SDS011;68127;51.050;14.084;2023-11-19T13:33:01;7.00;;;2.10;;
78783;SDS011;68127;51.050;14.084;2023-11-19T13:35:26;7.55;;;2.25;;
78783;SDS011;68127;51.050;14.084;2023-11-19T13:37:52;9.48;;;2.22;;
78783;SDS011;68127;51.050;14.084;2023-11-19T13:40:18;8.90;;;2.10;;
78783;SDS011;68127;51.050;14.084;2023-11-19T13:42:44;6.22;;;2.53;;
78783;SDS011;68127;51.050;14.084;2023-11-19T13:45:12;11.88;;;2.97;;
78783;SDS011;68127;51.050;14.084;2023-11-19T13:47:39;10.73;;;2.20;;
78783;SDS011;68127;51.050;14.084;2023-11-19T13:50:06;7.90;;;2.55;;
78783;SDS011;68127;51.050;14.084;2023-11-19T13:52:34;7.65;;;2.30;;
78783;SDS011;68127;51.050;14.084;2023-11-19T13:54:59;9.55;;;2.72;;
78783;SDS011;68127;51.050;14.084;2023-11-19T13:57:24;6.72;;;2.30;;
78783;SDS011;68127;51.050;14.084;2023-11-19T13:59:50;7.22;;;2.60;;
78783;SDS011;68127;51.050;14.084;2023-11-19T14:02:15;13.02;;;2.72;;
78783;SDS011;68127;51.050;14.084;2023-11-19T14:04:40;8.77;;;3.33;;
78783;SDS011;68127;51.050;14.084;2023-11-19T14:07:06;6.90;;;2.45;;
78783;SDS011;68127;51.050;14.084;2023-11-19T14:09:31;11.27;;;2.92;;
78783;SDS011;68127;51.050;14.084;2023-11-19T14:11:57;12.55;;;2.83;;
78783;SDS011;68127;51.050;14.084;2023-11-19T14:14:22;8.27;;;2.70;;
78783;SDS011;68127;51.050;14.084;2023-11-19T14:16:47;12.63;;;2.63;;
78783;SDS011;68127;51.050;14.084;2023-11-19T14:19:12;12.18;;;2.63;;
78783;SDS011;68127;51.050;14.084;2023-11-19T14:21:38;13.65;;;3.20;;
78783;SDS011;68127;51.050;14.084;2023-11-19T14:24:04;18.80;;;6.22;;
78783;SDS011;68127;51.050;14.084;2023-11-19T14:26:29;12.27;;;3.40;;
78783;SDS011;68127;51.050;14.084;2023-11-19T14:28:55;11.88;;;2.40;;
78783;SDS011;68127;51.050;14.084;2023-11-19T14:31:20;11.48;;;2.58;;
78783;SDS011;68127;51.050;14.084;2023-11-19T14:33:46;9.95;;;2.20;;
78783;SDS011;68127;51.050;14.084;2023-11-19T14:36:11;11.63;;;2.45;;
78783;SDS011;68127;51.050;14.084;2023-11-19T14:38:36;9.10;;;2.05;;
78783;SDS011;68127;51.050;14.084;2023-11-19T14:41:01;10.27;;;2.45;;
78783;SDS011;68127;51.050;14.084;2023-11-19T14:43:27;12.07;;;2.75;;
78783;SDS011;68127;51.050;14.084;2023-11-19T14:45:52;9.15;;;2.38;;